Aviation Digital Data Service (ADDS)

Output produced by METARs form (0211 UTC 24 November 2017)
found at http://www.aviationweather.gov/adds/metars/
 
METAR text: FMCH 231800Z 11004KT 9999 FEW020 25/23 Q1011 NOSIG
Conditions at: FMCH (MORONI/HAHAIA IN, KM) observed 1800 UTC 23 November 2017
Temperature: 25.0°C (77°F)
Dewpoint: 23.0°C (73°F) [RH = 89%]
Pressure (altimeter): 29.85 inches Hg (1011.0 mb)
Winds: from the ESE (110 degrees) at 5 MPH (4 knots; 2.1 m/s)
Visibility: 6 or more miles (10+ km)
Ceiling: at least 12,000 feet AGL
Clouds: few clouds at 2000 feet AGL
Weather: no significant weather observed at this time

METAR text: FMCH 231700Z 08004KT 9999 FEW020 25/23 Q1011 NOSIG
Conditions at: FMCH (MORONI/HAHAIA IN, KM) observed 1700 UTC 23 November 2017
Temperature: 25.0°C (77°F)
Dewpoint: 23.0°C (73°F) [RH = 89%]
Pressure (altimeter): 29.85 inches Hg (1011.0 mb)
Winds: from the E (80 degrees) at 5 MPH (4 knots; 2.1 m/s)
Visibility: 6 or more miles (10+ km)
Ceiling: at least 12,000 feet AGL
Clouds: few clouds at 2000 feet AGL
Weather: no significant weather observed at this time

METAR text: FMCH 231600Z 16001KT 9999 FEW020 BKN028 26/24 Q1010 NOSIG
Conditions at: FMCH (MORONI/HAHAIA IN, KM) observed 1600 UTC 23 November 2017
Temperature: 26.0°C (79°F)
Dewpoint: 24.0°C (75°F) [RH = 89%]
Pressure (altimeter): 29.82 inches Hg (1010.0 mb)
Winds: from the SSE (160 degrees) at 1 MPH (1 knots; 0.5 m/s)
Visibility: 6 or more miles (10+ km)
Ceiling: 2800 feet AGL
Clouds: few clouds at 2000 feet AGL
broken clouds at 2800 feet AGL
Weather: no significant weather observed at this time

METAR text: FMCH 231500Z 17001KT 9999 FEW020 BKN028 27/24 Q1010 NOSIG
Conditions at: FMCH (MORONI/HAHAIA IN, KM) observed 1500 UTC 23 November 2017
Temperature: 27.0°C (81°F)
Dewpoint: 24.0°C (75°F) [RH = 84%]
Pressure (altimeter): 29.82 inches Hg (1010.0 mb)
Winds: from the S (170 degrees) at 1 MPH (1 knots; 0.5 m/s)
Visibility: 6 or more miles (10+ km)
Ceiling: 2800 feet AGL
Clouds: few clouds at 2000 feet AGL
broken clouds at 2800 feet AGL
Weather: no significant weather observed at this time

METAR text: FMCH 231400Z 36002KT 9999 FEW020CB SCT028 28/24 Q1010 NOSIG
Conditions at: FMCH (MORONI/HAHAIA IN, KM) observed 1400 UTC 23 November 2017
Temperature: 28.0°C (82°F)
Dewpoint: 24.0°C (75°F) [RH = 79%]
Pressure (altimeter): 29.82 inches Hg (1010.0 mb)
Winds: from the N (360 degrees) at 2 MPH (2 knots; 1.0 m/s)
Visibility: 6 or more miles (10+ km)
Ceiling: at least 12,000 feet AGL
Clouds: few clouds at 2000 feet AGL
scattered clouds at 2800 feet AGL
Weather: no significant weather observed at this time

METAR text: FMCH 231300Z VRB01KT 9999 FEW020CB BKN028 26/25 Q1010 NOSIG
Conditions at: FMCH (MORONI/HAHAIA IN, KM) observed 1300 UTC 23 November 2017
Temperature: 26.0°C (79°F)
Dewpoint: 25.0°C (77°F) [RH = 94%]
Pressure (altimeter): 29.82 inches Hg (1010.0 mb)
Winds: variable direction winds at 1 MPH (1 knots; 0.5 m/s)
Visibility: 6 or more miles (10+ km)
Ceiling: 2800 feet AGL
Clouds: few clouds at 2000 feet AGL
broken clouds at 2800 feet AGL
Weather: no significant weather observed at this time

METAR text: FMCH 231200Z 08006KT 9999 -TSRA FEW020CB BKN028 25/24 Q1010 TEMPO 2000 SHRA
Conditions at: FMCH (MORONI/HAHAIA IN, KM) observed 1200 UTC 23 November 2017
Temperature: 25.0°C (77°F)
Dewpoint: 24.0°C (75°F) [RH = 94%]
Pressure (altimeter): 29.82 inches Hg (1010.0 mb)
Winds: from the E (80 degrees) at 7 MPH (6 knots; 3.1 m/s)
Visibility: 6 or more miles (10+ km)
Ceiling: 2800 feet AGL
Clouds: few clouds at 2000 feet AGL
broken clouds at 2800 feet AGL
Weather: -TSRA  (light rain associated with thunderstorm(s))

METAR text: FMCH 231100Z 07011KT 3500 TSRA FEW015 FEW020CB OVC024 25/24 Q1011 TEMPO 2000 TSRA
Conditions at: FMCH (MORONI/HAHAIA IN, KM) observed 1100 UTC 23 November 2017
Temperature: 25.0°C (77°F)
Dewpoint: 24.0°C (75°F) [RH = 94%]
Pressure (altimeter): 29.85 inches Hg (1011.0 mb)
Winds: from the ENE (70 degrees) at 13 MPH (11 knots; 5.7 m/s)
Visibility: 2.17 miles (3.49 km)
Ceiling: 2400 feet AGL
Clouds: few clouds at 1500 feet AGL
few clouds at 2000 feet AGL
overcast cloud deck at 2400 feet AGL
Weather: TSRA  (rain associated with thunderstorm(s))

METAR text: FMCH 231000Z 09004KT 9999 -RA FEW015 FEW020TCU BKN023 27/25 Q1011 TEMPO RA
Conditions at: FMCH (MORONI/HAHAIA IN, KM) observed 1000 UTC 23 November 2017
Temperature: 27.0°C (81°F)
Dewpoint: 25.0°C (77°F) [RH = 89%]
Pressure (altimeter): 29.85 inches Hg (1011.0 mb)
Winds: from the E (90 degrees) at 5 MPH (4 knots; 2.1 m/s)
Visibility: 6 or more miles (10+ km)
Ceiling: 2300 feet AGL
Clouds: few clouds at 1500 feet AGL
few clouds at 2000 feet AGL
broken clouds at 2300 feet AGL
Weather: -RA  (light rain)

METAR text: FMCH 230900Z 17008KT 9999 -RA FEW018TCU BKN023 28/25 Q1011 TEMPO RA
Conditions at: FMCH (MORONI/HAHAIA IN, KM) observed 0900 UTC 23 November 2017
Temperature: 28.0°C (82°F)
Dewpoint: 25.0°C (77°F) [RH = 84%]
Pressure (altimeter): 29.85 inches Hg (1011.0 mb)
Winds: from the S (170 degrees) at 9 MPH (8 knots; 4.2 m/s)
Visibility: 6 or more miles (10+ km)
Ceiling: 2300 feet AGL
Clouds: few clouds at 1800 feet AGL
broken clouds at 2300 feet AGL
Weather: -RA  (light rain)

METAR text: FMCH 230800Z 29003KT 9999 FEW020TCU SCT024 29/25 Q1011 TEMPO RA
Conditions at: FMCH (MORONI/HAHAIA IN, KM) observed 0800 UTC 23 November 2017
Temperature: 29.0°C (84°F)
Dewpoint: 25.0°C (77°F) [RH = 79%]
Pressure (altimeter): 29.85 inches Hg (1011.0 mb)
Winds: from the WNW (290 degrees) at 3 MPH (3 knots; 1.6 m/s)
Visibility: 6 or more miles (10+ km)
Ceiling: at least 12,000 feet AGL
Clouds: few clouds at 2000 feet AGL
scattered clouds at 2400 feet AGL
Weather: no significant weather observed at this time

METAR text: FMCH 230700Z VRB01KT 9999 FEW020TCU SCT023 29/24 Q1012 TEMPO RA
Conditions at: FMCH (MORONI/HAHAIA IN, KM) observed 0700 UTC 23 November 2017
Temperature: 29.0°C (84°F)
Dewpoint: 24.0°C (75°F) [RH = 74%]
Pressure (altimeter): 29.88 inches Hg (1012.0 mb)
Winds: variable direction winds at 1 MPH (1 knots; 0.5 m/s)
Visibility: 6 or more miles (10+ km)
Ceiling: at least 12,000 feet AGL
Clouds: few clouds at 2000 feet AGL
scattered clouds at 2300 feet AGL
Weather: no significant weather observed at this time

METAR text: FMCH 230600Z VRB01KT 9999 SCT022 29/24 Q1012 NOSIG
Conditions at: FMCH (MORONI/HAHAIA IN, KM) observed 0600 UTC 23 November 2017
Temperature: 29.0°C (84°F)
Dewpoint: 24.0°C (75°F) [RH = 74%]
Pressure (altimeter): 29.88 inches Hg (1012.0 mb)
Winds: variable direction winds at 1 MPH (1 knots; 0.5 m/s)
Visibility: 6 or more miles (10+ km)
Ceiling: at least 12,000 feet AGL
Clouds: scattered clouds at 2200 feet AGL
Weather: no significant weather observed at this time

METAR text: FMCH 230500Z 06003KT 020V090 9999 FEW021 28/24 Q1012 NOSIG
Conditions at: FMCH (MORONI/HAHAIA IN, KM) observed 0500 UTC 23 November 2017
Temperature: 28.0°C (82°F)
Dewpoint: 24.0°C (75°F) [RH = 79%]
Pressure (altimeter): 29.88 inches Hg (1012.0 mb)
Winds: from the ENE (60 degrees) at 3 MPH (3 knots; 1.6 m/s)
Visibility: 6 or more miles (10+ km)
Ceiling: at least 12,000 feet AGL
Clouds: few clouds at 2100 feet AGL
Weather: no significant weather observed at this time

METAR text: FMCH 230400Z VRB02KT 9999 FEW021 26/24 Q1011 NOSIG
Conditions at: FMCH (MORONI/HAHAIA IN, KM) observed 0400 UTC 23 November 2017
Temperature: 26.0°C (79°F)
Dewpoint: 24.0°C (75°F) [RH = 89%]
Pressure (altimeter): 29.85 inches Hg (1011.0 mb)
Winds: variable direction winds at 2 MPH (2 knots; 1.0 m/s)
Visibility: 6 or more miles (10+ km)
Ceiling: at least 12,000 feet AGL
Clouds: few clouds at 2100 feet AGL
Weather: no significant weather observed at this time

METAR text: FMCH 230300Z 00000KT 9999 FEW020 26/22 Q1011 NOSIG
Conditions at: FMCH (MORONI/HAHAIA IN, KM) observed 0300 UTC 23 November 2017
Temperature: 26.0°C (79°F)
Dewpoint: 22.0°C (72°F) [RH = 79%]
Pressure (altimeter): 29.85 inches Hg (1011.0 mb)
Winds: calm
Visibility: 6 or more miles (10+ km)
Ceiling: at least 12,000 feet AGL
Clouds: few clouds at 2000 feet AGL
Weather: no significant weather observed at this time

METAR text: FMCH 222200Z 08003KT 9999 FEW020 24/23 Q1009 NOSIG
Conditions at: FMCH (MORONI/HAHAIA IN, KM) observed 2200 UTC 22 November 2017
Temperature: 24.0°C (75°F)
Dewpoint: 23.0°C (73°F) [RH = 94%]
Pressure (altimeter): 29.79 inches Hg (1009.0 mb)
Winds: from the E (80 degrees) at 3 MPH (3 knots; 1.6 m/s)
Visibility: 6 or more miles (10+ km)
Ceiling: at least 12,000 feet AGL
Clouds: few clouds at 2000 feet AGL
Weather: no significant weather observed at this time

METAR text: FMCH 222100Z 07003KT 9999 FEW020 24/23 Q1010 NOSIG
Conditions at: FMCH (MORONI/HAHAIA IN, KM) observed 2100 UTC 22 November 2017
Temperature: 24.0°C (75°F)
Dewpoint: 23.0°C (73°F) [RH = 94%]
Pressure (altimeter): 29.82 inches Hg (1010.0 mb)
Winds: from the ENE (70 degrees) at 3 MPH (3 knots; 1.6 m/s)
Visibility: 6 or more miles (10+ km)
Ceiling: at least 12,000 feet AGL
Clouds: few clouds at 2000 feet AGL
Weather: no significant weather observed at this time

METAR text: FMCH 222000Z 08003KT 9999 FEW020 24/23 Q1011 NOSIG
Conditions at: FMCH (MORONI/HAHAIA IN, KM) observed 2000 UTC 22 November 2017
Temperature: 24.0°C (75°F)
Dewpoint: 23.0°C (73°F) [RH = 94%]
Pressure (altimeter): 29.85 inches Hg (1011.0 mb)
Winds: from the E (80 degrees) at 3 MPH (3 knots; 1.6 m/s)
Visibility: 6 or more miles (10+ km)
Ceiling: at least 12,000 feet AGL
Clouds: few clouds at 2000 feet AGL
Weather: no significant weather observed at this time

METAR text: FMCH 221900Z 11004KT 9999 FEW020 24/23 Q1011 NOSIG
Conditions at: FMCH (MORONI/HAHAIA IN, KM) observed 1900 UTC 22 November 2017
Temperature: 24.0°C (75°F)
Dewpoint: 23.0°C (73°F) [RH = 94%]
Pressure (altimeter): 29.85 inches Hg (1011.0 mb)
Winds: from the ESE (110 degrees) at 5 MPH (4 knots; 2.1 m/s)
Visibility: 6 or more miles (10+ km)
Ceiling: at least 12,000 feet AGL
Clouds: few clouds at 2000 feet AGL
Weather: no significant weather observed at this time

METAR text: FMCH 221800Z 09004KT 9999 FEW020 25/23 Q1011 NOSIG
Conditions at: FMCH (MORONI/HAHAIA IN, KM) observed 1800 UTC 22 November 2017
Temperature: 25.0°C (77°F)
Dewpoint: 23.0°C (73°F) [RH = 89%]
Pressure (altimeter): 29.85 inches Hg (1011.0 mb)
Winds: from the E (90 degrees) at 5 MPH (4 knots; 2.1 m/s)
Visibility: 6 or more miles (10+ km)
Ceiling: at least 12,000 feet AGL
Clouds: few clouds at 2000 feet AGL
Weather: no significant weather observed at this time

METAR text: FMCH 221700Z 08002KT 9999 FEW020 26/23 Q1010 NOSIG
Conditions at: FMCH (MORONI/HAHAIA IN, KM) observed 1700 UTC 22 November 2017
Temperature: 26.0°C (79°F)
Dewpoint: 23.0°C (73°F) [RH = 84%]
Pressure (altimeter): 29.82 inches Hg (1010.0 mb)
Winds: from the E (80 degrees) at 2 MPH (2 knots; 1.0 m/s)
Visibility: 6 or more miles (10+ km)
Ceiling: at least 12,000 feet AGL
Clouds: few clouds at 2000 feet AGL
Weather: no significant weather observed at this time

METAR text: FMCH 221600Z 08002KT 9999 SCT020 26/24 Q1010 NOSIG
Conditions at: FMCH (MORONI/HAHAIA IN, KM) observed 1600 UTC 22 November 2017
Temperature: 26.0°C (79°F)
Dewpoint: 24.0°C (75°F) [RH = 89%]
Pressure (altimeter): 29.82 inches Hg (1010.0 mb)
Winds: from the E (80 degrees) at 2 MPH (2 knots; 1.0 m/s)
Visibility: 6 or more miles (10+ km)
Ceiling: at least 12,000 feet AGL
Clouds: scattered clouds at 2000 feet AGL
Weather: no significant weather observed at this time

METAR text: FMCH 221500Z 09007KT 9999 SCT020 27/24 Q1010 NOSIG
Conditions at: FMCH (MORONI/HAHAIA IN, KM) observed 1500 UTC 22 November 2017
Temperature: 27.0°C (81°F)
Dewpoint: 24.0°C (75°F) [RH = 84%]
Pressure (altimeter): 29.82 inches Hg (1010.0 mb)
Winds: from the E (90 degrees) at 8 MPH (7 knots; 3.6 m/s)
Visibility: 6 or more miles (10+ km)
Ceiling: at least 12,000 feet AGL
Clouds: scattered clouds at 2000 feet AGL
Weather: no significant weather observed at this time